sensor_id;sensor_type;location;lat;lon;timestamp;temperature;humidity
48551;DHT22;34397;51.176;6.738;2023-08-08T00:01:04;15.70;65.10
48551;DHT22;34397;51.176;6.738;2023-08-08T00:03:35;15.60;65.80
48551;DHT22;34397;51.176;6.738;2023-08-08T00:06:07;15.60;65.40
48551;DHT22;34397;51.176;6.738;2023-08-08T00:08:39;15.50;65.10
48551;DHT22;34397;51.176;6.738;2023-08-08T00:11:11;15.50;65.80
48551;DHT22;34397;51.176;6.738;2023-08-08T00:13:44;15.40;65.70
48551;DHT22;34397;51.176;6.738;2023-08-08T00:16:16;15.40;65.40
48551;DHT22;34397;51.176;6.738;2023-08-08T00:18:48;15.40;66.10
48551;DHT22;34397;51.176;6.738;2023-08-08T00:21:20;15.40;65.50
48551;DHT22;34397;51.176;6.738;2023-08-08T00:23:52;15.30;65.60
48551;DHT22;34397;51.176;6.738;2023-08-08T00:26:24;15.30;65.80
48551;DHT22;34397;51.176;6.738;2023-08-08T00:28:57;15.30;66.10
48551;DHT22;34397;51.176;6.738;2023-08-08T00:31:29;15.20;66.70
48551;DHT22;34397;51.176;6.738;2023-08-08T00:34:01;15.10;66.70
48551;DHT22;34397;51.176;6.738;2023-08-08T00:36:32;15.10;66.80
48551;DHT22;34397;51.176;6.738;2023-08-08T00:39:04;15.10;66.60
48551;DHT22;34397;51.176;6.738;2023-08-08T00:41:36;15.00;66.40
48551;DHT22;34397;51.176;6.738;2023-08-08T00:44:09;15.00;66.00
48551;DHT22;34397;51.176;6.738;2023-08-08T00:46:41;15.00;66.80
48551;DHT22;34397;51.176;6.738;2023-08-08T00:49:13;15.00;66.80
48551;DHT22;34397;51.176;6.738;2023-08-08T00:51:45;15.00;66.90
48551;DHT22;34397;51.176;6.738;2023-08-08T00:54:17;14.90;66.60
48551;DHT22;34397;51.176;6.738;2023-08-08T00:56:49;14.90;66.80
48551;DHT22;34397;51.176;6.738;2023-08-08T00:59:22;14.80;66.80
48551;DHT22;34397;51.176;6.738;2023-08-08T01:01:54;14.80;67.50
48551;DHT22;34397;51.176;6.738;2023-08-08T01:04:26;14.80;67.00
48551;DHT22;34397;51.176;6.738;2023-08-08T01:07:00;14.80;67.10
48551;DHT22;34397;51.176;6.738;2023-08-08T01:09:41;14.70;67.20
48551;DHT22;34397;51.176;6.738;2023-08-08T01:12:16;14.70;67.40
48551;DHT22;34397;51.176;6.738;2023-08-08T01:14:49;14.70;67.10
48551;DHT22;34397;51.176;6.738;2023-08-08T01:17:21;14.70;67.90
48551;DHT22;34397;51.176;6.738;2023-08-08T01:19:53;14.70;67.80
48551;DHT22;34397;51.176;6.738;2023-08-08T01:22:27;14.60;68.20
48551;DHT22;34397;51.176;6.738;2023-08-08T01:25:03;14.60;68.10
48551;DHT22;34397;51.176;6.738;2023-08-08T01:27:36;14.60;67.90
48551;DHT22;34397;51.176;6.738;2023-08-08T01:30:08;14.60;68.10
48551;DHT22;34397;51.176;6.738;2023-08-08T01:32:41;14.60;68.60
48551;DHT22;34397;51.176;6.738;2023-08-08T01:35:13;14.50;68.80
48551;DHT22;34397;51.176;6.738;2023-08-08T01:37:48;14.50;68.50
48551;DHT22;34397;51.176;6.738;2023-08-08T01:40:22;14.50;68.60
48551;DHT22;34397;51.176;6.738;2023-08-08T01:42:55;14.50;68.90
48551;DHT22;34397;51.176;6.738;2023-08-08T01:45:27;14.40;69.40
48551;DHT22;34397;51.176;6.738;2023-08-08T01:47:59;14.40;69.10
48551;DHT22;34397;51.176;6.738;2023-08-08T01:50:30;14.40;69.40
48551;DHT22;34397;51.176;6.738;2023-08-08T01:53:02;14.40;69.80
48551;DHT22;34397;51.176;6.738;2023-08-08T01:55:35;14.30;69.50
48551;DHT22;34397;51.176;6.738;2023-08-08T01:58:07;14.30;70.10
48551;DHT22;34397;51.176;6.738;2023-08-08T02:00:39;14.30;70.30
48551;DHT22;34397;51.176;6.738;2023-08-08T02:03:11;14.30;69.70
48551;DHT22;34397;51.176;6.738;2023-08-08T02:05:43;14.30;70.60
48551;DHT22;34397;51.176;6.738;2023-08-08T02:08:14;14.20;70.10
48551;DHT22;34397;51.176;6.738;2023-08-08T02:10:48;14.20;70.50
48551;DHT22;34397;51.176;6.738;2023-08-08T02:13:20;14.20;70.60
48551;DHT22;34397;51.176;6.738;2023-08-08T02:15:51;14.20;70.70
48551;DHT22;34397;51.176;6.738;2023-08-08T02:18:24;14.20;70.60
48551;DHT22;34397;51.176;6.738;2023-08-08T02:20:55;14.20;70.80
48551;DHT22;34397;51.176;6.738;2023-08-08T02:23:27;14.20;70.50
48551;DHT22;34397;51.176;6.738;2023-08-08T02:26:00;14.20;70.70
48551;DHT22;34397;51.176;6.738;2023-08-08T02:28:32;14.20;70.80
48551;DHT22;34397;51.176;6.738;2023-08-08T02:31:04;14.20;71.00
48551;DHT22;34397;51.176;6.738;2023-08-08T02:33:36;14.10;70.80
48551;DHT22;34397;51.176;6.738;2023-08-08T02:36:07;14.20;70.90
48551;DHT22;34397;51.176;6.738;2023-08-08T02:38:39;14.10;71.80
48551;DHT22;34397;51.176;6.738;2023-08-08T02:41:12;14.10;71.10
48551;DHT22;34397;51.176;6.738;2023-08-08T02:43:44;14.10;70.70
48551;DHT22;34397;51.176;6.738;2023-08-08T02:46:16;14.10;70.90
48551;DHT22;34397;51.176;6.738;2023-08-08T02:48:48;14.10;70.70
48551;DHT22;34397;51.176;6.738;2023-08-08T02:51:19;14.10;70.90
48551;DHT22;34397;51.176;6.738;2023-08-08T02:53:51;14.10;71.30
48551;DHT22;34397;51.176;6.738;2023-08-08T02:56:24;14.10;71.40
48551;DHT22;34397;51.176;6.738;2023-08-08T02:58:56;14.10;71.40
48551;DHT22;34397;51.176;6.738;2023-08-08T03:01:28;14.10;71.50
48551;DHT22;34397;51.176;6.738;2023-08-08T03:04:00;14.10;71.50
48551;DHT22;34397;51.176;6.738;2023-08-08T03:06:32;14.10;71.50
48551;DHT22;34397;51.176;6.738;2023-08-08T03:09:03;14.10;71.70
48551;DHT22;34397;51.176;6.738;2023-08-08T03:11:36;14.10;71.60
48551;DHT22;34397;51.176;6.738;2023-08-08T03:14:11;14.10;71.40
48551;DHT22;34397;51.176;6.738;2023-08-08T03:16:43;14.10;71.60
48551;DHT22;34397;51.176;6.738;2023-08-08T03:19:15;14.10;71.80
48551;DHT22;34397;51.176;6.738;2023-08-08T03:21:46;14.10;71.50
48551;DHT22;34397;51.176;6.738;2023-08-08T03:24:18;14.10;72.00
48551;DHT22;34397;51.176;6.738;2023-08-08T03:26:51;14.10;71.90
48551;DHT22;34397;51.176;6.738;2023-08-08T03:29:23;14.10;71.80
48551;DHT22;34397;51.176;6.738;2023-08-08T03:31:54;14.10;71.70
48551;DHT22;34397;51.176;6.738;2023-08-08T03:34:26;14.10;72.20
48551;DHT22;34397;51.176;6.738;2023-08-08T03:36:58;14.00;72.30
48551;DHT22;34397;51.176;6.738;2023-08-08T03:39:30;14.00;72.40
48551;DHT22;34397;51.176;6.738;2023-08-08T03:42:04;14.00;73.10
48551;DHT22;34397;51.176;6.738;2023-08-08T03:44:36;14.00;73.30
48551;DHT22;34397;51.176;6.738;2023-08-08T03:47:08;14.00;73.20
48551;DHT22;34397;51.176;6.738;2023-08-08T03:49:39;14.00;73.50
48551;DHT22;34397;51.176;6.738;2023-08-08T03:52:11;14.00;73.10
48551;DHT22;34397;51.176;6.738;2023-08-08T03:54:43;14.00;73.00
48551;DHT22;34397;51.176;6.738;2023-08-08T03:57:16;14.00;73.30
48551;DHT22;34397;51.176;6.738;2023-08-08T03:59:48;13.90;73.10
48551;DHT22;34397;51.176;6.738;2023-08-08T04:02:19;14.00;74.20
48551;DHT22;34397;51.176;6.738;2023-08-08T04:04:51;14.00;74.20
48551;DHT22;34397;51.176;6.738;2023-08-08T04:07:23;14.00;74.20
48551;DHT22;34397;51.176;6.738;2023-08-08T04:09:54;13.90;74.40
48551;DHT22;34397;51.176;6.738;2023-08-08T04:12:28;13.90;74.70
48551;DHT22;34397;51.176;6.738;2023-08-08T04:14:59;13.90;74.80
48551;DHT22;34397;51.176;6.738;2023-08-08T04:17:31;13.90;75.50
48551;DHT22;34397;51.176;6.738;2023-08-08T04:20:03;13.90;75.60
48551;DHT22;34397;51.176;6.738;2023-08-08T04:22:36;13.90;75.50
48551;DHT22;34397;51.176;6.738;2023-08-08T04:25:08;13.90;74.80
48551;DHT22;34397;51.176;6.738;2023-08-08T04:27:41;13.90;75.60
48551;DHT22;34397;51.176;6.738;2023-08-08T04:30:13;13.80;75.60
48551;DHT22;34397;51.176;6.738;2023-08-08T04:32:45;13.90;75.90
48551;DHT22;34397;51.176;6.738;2023-08-08T04:35:17;13.90;76.10
48551;DHT22;34397;51.176;6.738;2023-08-08T04:37:49;13.90;76.00
48551;DHT22;34397;51.176;6.738;2023-08-08T04:40:21;13.90;76.60
48551;DHT22;34397;51.176;6.738;2023-08-08T04:42:54;14.00;76.60
48551;DHT22;34397;51.176;6.738;2023-08-08T04:45:26;14.00;75.80
48551;DHT22;34397;51.176;6.738;2023-08-08T04:47:59;14.00;75.70
48551;DHT22;34397;51.176;6.738;2023-08-08T04:50:31;14.00;75.50
48551;DHT22;34397;51.176;6.738;2023-08-08T04:53:02;14.10;75.70
48551;DHT22;34397;51.176;6.738;2023-08-08T04:55:34;14.10;76.40
48551;DHT22;34397;51.176;6.738;2023-08-08T04:58:07;14.10;75.90
48551;DHT22;34397;51.176;6.738;2023-08-08T05:00:39;14.10;76.00
48551;DHT22;34397;51.176;6.738;2023-08-08T05:03:11;14.10;75.90
48551;DHT22;34397;51.176;6.738;2023-08-08T05:05:43;14.10;76.50
48551;DHT22;34397;51.176;6.738;2023-08-08T05:08:16;14.10;76.90
48551;DHT22;34397;51.176;6.738;2023-08-08T05:10:48;14.10;76.20
48551;DHT22;34397;51.176;6.738;2023-08-08T05:13:21;14.10;76.60
48551;DHT22;34397;51.176;6.738;2023-08-08T05:15:52;14.20;76.60
48551;DHT22;34397;51.176;6.738;2023-08-08T05:18:24;14.20;77.00
48551;DHT22;34397;51.176;6.738;2023-08-08T05:20:56;14.20;76.70
48551;DHT22;34397;51.176;6.738;2023-08-08T05:23:28;14.20;77.40
48551;DHT22;34397;51.176;6.738;2023-08-08T05:25:59;14.30;76.80
48551;DHT22;34397;51.176;6.738;2023-08-08T05:28:32;14.30;77.00
48551;DHT22;34397;51.176;6.738;2023-08-08T05:31:04;14.30;77.40
48551;DHT22;34397;51.176;6.738;2023-08-08T05:33:36;14.30;77.10
48551;DHT22;34397;51.176;6.738;2023-08-08T05:36:07;14.40;76.70
48551;DHT22;34397;51.176;6.738;2023-08-08T05:38:39;14.50;76.50
48551;DHT22;34397;51.176;6.738;2023-08-08T05:41:11;14.50;76.40
48551;DHT22;34397;51.176;6.738;2023-08-08T05:43:45;14.60;76.00
48551;DHT22;34397;51.176;6.738;2023-08-08T05:46:16;14.70;75.60
48551;DHT22;34397;51.176;6.738;2023-08-08T05:48:48;14.80;75.40
48551;DHT22;34397;51.176;6.738;2023-08-08T05:51:20;14.90;75.20
48551;DHT22;34397;51.176;6.738;2023-08-08T05:53:51;14.90;75.00
48551;DHT22;34397;51.176;6.738;2023-08-08T05:56:23;15.00;74.90
48551;DHT22;34397;51.176;6.738;2023-08-08T05:58:56;15.00;74.60
48551;DHT22;34397;51.176;6.738;2023-08-08T06:01:28;15.10;74.40
48551;DHT22;34397;51.176;6.738;2023-08-08T06:04:00;15.20;74.20
48551;DHT22;34397;51.176;6.738;2023-08-08T06:06:31;15.30;74.00
48551;DHT22;34397;51.176;6.738;2023-08-08T06:09:03;15.30;73.90
48551;DHT22;34397;51.176;6.738;2023-08-08T06:11:35;15.30;73.60
48551;DHT22;34397;51.176;6.738;2023-08-08T06:14:08;15.30;73.70
48551;DHT22;34397;51.176;6.738;2023-08-08T06:16:40;15.40;73.60
48551;DHT22;34397;51.176;6.738;2023-08-08T06:19:12;15.40;73.50
48551;DHT22;34397;51.176;6.738;2023-08-08T06:21:45;15.40;73.30
48551;DHT22;34397;51.176;6.738;2023-08-08T06:24:17;15.40;73.20
48551;DHT22;34397;51.176;6.738;2023-08-08T06:26:49;15.50;73.00
48551;DHT22;34397;51.176;6.738;2023-08-08T06:29:22;15.40;73.50
48551;DHT22;34397;51.176;6.738;2023-08-08T06:31:53;15.50;73.30
48551;DHT22;34397;51.176;6.738;2023-08-08T06:34:25;15.50;73.20
48551;DHT22;34397;51.176;6.738;2023-08-08T06:36:57;15.50;72.90
48551;DHT22;34397;51.176;6.738;2023-08-08T06:39:28;15.50;72.90
48551;DHT22;34397;51.176;6.738;2023-08-08T06:42:01;15.50;73.10
48551;DHT22;34397;51.176;6.738;2023-08-08T06:44:40;15.50;72.90
48551;DHT22;34397;51.176;6.738;2023-08-08T06:47:12;15.50;73.20
48551;DHT22;34397;51.176;6.738;2023-08-08T06:49:44;15.50;72.90
48551;DHT22;34397;51.176;6.738;2023-08-08T06:52:16;15.60;72.80
48551;DHT22;34397;51.176;6.738;2023-08-08T06:54:47;15.60;72.60
48551;DHT22;34397;51.176;6.738;2023-08-08T06:57:19;15.60;72.80
48551;DHT22;34397;51.176;6.738;2023-08-08T06:59:52;15.60;72.70
48551;DHT22;34397;51.176;6.738;2023-08-08T07:02:24;15.60;73.10
48551;DHT22;34397;51.176;6.738;2023-08-08T07:04:56;15.70;73.50
48551;DHT22;34397;51.176;6.738;2023-08-08T07:07:27;15.70;72.90
48551;DHT22;34397;51.176;6.738;2023-08-08T07:10:00;15.70;72.80
48551;DHT22;34397;51.176;6.738;2023-08-08T07:12:32;15.70;72.70
48551;DHT22;34397;51.176;6.738;2023-08-08T07:15:06;15.70;72.50
48551;DHT22;34397;51.176;6.738;2023-08-08T07:17:38;15.80;72.90
48551;DHT22;34397;51.176;6.738;2023-08-08T07:20:10;15.70;73.50
48551;DHT22;34397;51.176;6.738;2023-08-08T07:22:44;15.70;72.80
48551;DHT22;34397;51.176;6.738;2023-08-08T07:25:16;15.80;72.70
48551;DHT22;34397;51.176;6.738;2023-08-08T07:27:48;15.80;72.20
48551;DHT22;34397;51.176;6.738;2023-08-08T07:30:21;15.90;72.10
48551;DHT22;34397;51.176;6.738;2023-08-08T07:32:53;16.00;71.80
48551;DHT22;34397;51.176;6.738;2023-08-08T07:35:24;16.00;71.30
48551;DHT22;34397;51.176;6.738;2023-08-08T07:37:56;16.10;71.50
48551;DHT22;34397;51.176;6.738;2023-08-08T07:40:28;16.10;71.10
48551;DHT22;34397;51.176;6.738;2023-08-08T07:42:59;16.20;71.00
48551;DHT22;34397;51.176;6.738;2023-08-08T07:45:33;16.20;70.70
48551;DHT22;34397;51.176;6.738;2023-08-08T07:48:04;16.30;70.80
48551;DHT22;34397;51.176;6.738;2023-08-08T07:50:36;16.30;70.60
48551;DHT22;34397;51.176;6.738;2023-08-08T07:53:08;16.40;70.40
48551;DHT22;34397;51.176;6.738;2023-08-08T07:55:40;16.50;70.40
48551;DHT22;34397;51.176;6.738;2023-08-08T07:58:11;16.50;70.00
48551;DHT22;34397;51.176;6.738;2023-08-08T08:00:44;16.50;70.10
48551;DHT22;34397;51.176;6.738;2023-08-08T08:03:16;16.50;70.10
48551;DHT22;34397;51.176;6.738;2023-08-08T08:05:48;16.50;69.80
48551;DHT22;34397;51.176;6.738;2023-08-08T08:08:19;16.50;69.80
48551;DHT22;34397;51.176;6.738;2023-08-08T08:10:52;16.50;70.10
48551;DHT22;34397;51.176;6.738;2023-08-08T08:13:23;16.50;69.80
48551;DHT22;34397;51.176;6.738;2023-08-08T08:15:56;16.50;70.20
48551;DHT22;34397;51.176;6.738;2023-08-08T08:18:28;16.50;70.00
48551;DHT22;34397;51.176;6.738;2023-08-08T08:21:00;16.60;70.00
48551;DHT22;34397;51.176;6.738;2023-08-08T08:23:32;16.70;69.90
48551;DHT22;34397;51.176;6.738;2023-08-08T08:26:03;16.70;70.10
48551;DHT22;34397;51.176;6.738;2023-08-08T08:28:35;16.70;70.10
48551;DHT22;34397;51.176;6.738;2023-08-08T08:31:08;16.70;69.70
48551;DHT22;34397;51.176;6.738;2023-08-08T08:33:40;16.80;69.40
48551;DHT22;34397;51.176;6.738;2023-08-08T08:36:12;16.80;69.40
48551;DHT22;34397;51.176;6.738;2023-08-08T08:38:44;16.70;69.50
48551;DHT22;34397;51.176;6.738;2023-08-08T08:41:18;16.80;69.40
48551;DHT22;34397;51.176;6.738;2023-08-08T08:43:51;16.80;69.50
48551;DHT22;34397;51.176;6.738;2023-08-08T08:46:24;16.70;69.40
48551;DHT22;34397;51.176;6.738;2023-08-08T08:48:57;16.70;69.40
48551;DHT22;34397;51.176;6.738;2023-08-08T08:51:30;16.70;69.60
48551;DHT22;34397;51.176;6.738;2023-08-08T08:54:02;16.70;69.70
48551;DHT22;34397;51.176;6.738;2023-08-08T08:56:34;16.70;69.70
48551;DHT22;34397;51.176;6.738;2023-08-08T08:59:05;16.60;69.80
48551;DHT22;34397;51.176;6.738;2023-08-08T09:01:39;16.60;69.90
48551;DHT22;34397;51.176;6.738;2023-08-08T09:04:11;16.60;69.90
48551;DHT22;34397;51.176;6.738;2023-08-08T09:06:43;16.60;70.00
48551;DHT22;34397;51.176;6.738;2023-08-08T09:09:16;16.60;70.10
48551;DHT22;34397;51.176;6.738;2023-08-08T09:11:48;16.60;70.00
48551;DHT22;34397;51.176;6.738;2023-08-08T09:14:21;16.60;69.80
48551;DHT22;34397;51.176;6.738;2023-08-08T09:16:55;16.70;69.90
48551;DHT22;34397;51.176;6.738;2023-08-08T09:19:27;16.60;69.90
48551;DHT22;34397;51.176;6.738;2023-08-08T09:21:59;16.70;70.00
48551;DHT22;34397;51.176;6.738;2023-08-08T09:24:30;16.70;70.00
48551;DHT22;34397;51.176;6.738;2023-08-08T09:27:02;16.70;70.00
48551;DHT22;34397;51.176;6.738;2023-08-08T09:29:36;16.70;71.10
48551;DHT22;34397;51.176;6.738;2023-08-08T09:32:09;16.80;70.20
48551;DHT22;34397;51.176;6.738;2023-08-08T09:34:42;16.90;70.70
48551;DHT22;34397;51.176;6.738;2023-08-08T09:37:14;16.90;70.30
48551;DHT22;34397;51.176;6.738;2023-08-08T09:39:55;16.90;70.40
48551;DHT22;34397;51.176;6.738;2023-08-08T09:42:27;17.00;70.00
48551;DHT22;34397;51.176;6.738;2023-08-08T09:44:59;17.10;70.20
48551;DHT22;34397;51.176;6.738;2023-08-08T09:47:33;17.20;70.20
48551;DHT22;34397;51.176;6.738;2023-08-08T09:50:05;17.30;69.90
48551;DHT22;34397;51.176;6.738;2023-08-08T09:52:38;17.50;69.00
48551;DHT22;34397;51.176;6.738;2023-08-08T09:55:10;17.60;69.10
48551;DHT22;34397;51.176;6.738;2023-08-08T09:57:42;17.80;68.90
48551;DHT22;34397;51.176;6.738;2023-08-08T10:00:14;17.90;67.80
48551;DHT22;34397;51.176;6.738;2023-08-08T10:02:48;18.00;68.00
48551;DHT22;34397;51.176;6.738;2023-08-08T10:05:20;18.10;67.80
48551;DHT22;34397;51.176;6.738;2023-08-08T10:07:53;18.20;67.70
48551;DHT22;34397;51.176;6.738;2023-08-08T10:10:25;18.20;66.50
48551;DHT22;34397;51.176;6.738;2023-08-08T10:12:57;18.20;66.60
48551;DHT22;34397;51.176;6.738;2023-08-08T10:15:28;18.20;66.30
48551;DHT22;34397;51.176;6.738;2023-08-08T10:18:02;18.10;65.70
48551;DHT22;34397;51.176;6.738;2023-08-08T10:20:35;18.00;66.00
48551;DHT22;34397;51.176;6.738;2023-08-08T10:23:07;17.90;66.40
48551;DHT22;34397;51.176;6.738;2023-08-08T10:25:43;17.70;66.60
48551;DHT22;34397;51.176;6.738;2023-08-08T10:28:17;17.60;67.20
48551;DHT22;34397;51.176;6.738;2023-08-08T10:30:52;17.60;67.50
48551;DHT22;34397;51.176;6.738;2023-08-08T10:33:26;17.50;67.80
48551;DHT22;34397;51.176;6.738;2023-08-08T10:35:59;17.40;68.60
48551;DHT22;34397;51.176;6.738;2023-08-08T10:38:39;17.30;68.00
48551;DHT22;34397;51.176;6.738;2023-08-08T10:41:13;17.20;68.40
48551;DHT22;34397;51.176;6.738;2023-08-08T10:43:48;17.20;68.30
48551;DHT22;34397;51.176;6.738;2023-08-08T10:46:23;17.30;68.60
48551;DHT22;34397;51.176;6.738;2023-08-08T10:48:58;17.20;68.90
48551;DHT22;34397;51.176;6.738;2023-08-08T10:51:33;17.30;68.40
48551;DHT22;34397;51.176;6.738;2023-08-08T10:54:09;17.40;68.80
48551;DHT22;34397;51.176;6.738;2023-08-08T10:56:47;17.50;68.60
48551;DHT22;34397;51.176;6.738;2023-08-08T10:59:23;17.70;68.90
48551;DHT22;34397;51.176;6.738;2023-08-08T11:01:56;17.90;68.10
48551;DHT22;34397;51.176;6.738;2023-08-08T11:04:37;18.10;66.80
48551;DHT22;34397;51.176;6.738;2023-08-08T11:07:08;18.30;67.10
48551;DHT22;34397;51.176;6.738;2023-08-08T11:09:40;18.30;65.30
48551;DHT22;34397;51.176;6.738;2023-08-08T11:12:15;18.40;65.70
48551;DHT22;34397;51.176;6.738;2023-08-08T11:14:47;18.40;64.70
48551;DHT22;34397;51.176;6.738;2023-08-08T11:17:19;18.40;64.40
48551;DHT22;34397;51.176;6.738;2023-08-08T11:19:55;18.40;64.10
48551;DHT22;34397;51.176;6.738;2023-08-08T11:22:27;18.50;64.50
48551;DHT22;34397;51.176;6.738;2023-08-08T11:25:03;18.70;63.60
48551;DHT22;34397;51.176;6.738;2023-08-08T11:27:38;18.80;62.50
48551;DHT22;34397;51.176;6.738;2023-08-08T11:30:10;18.90;62.60
48551;DHT22;34397;51.176;6.738;2023-08-08T11:32:43;19.00;61.80
48551;DHT22;34397;51.176;6.738;2023-08-08T11:35:17;19.00;61.20
48551;DHT22;34397;51.176;6.738;2023-08-08T11:37:49;19.00;61.00
48551;DHT22;34397;51.176;6.738;2023-08-08T11:40:25;18.90;61.30
48551;DHT22;34397;51.176;6.738;2023-08-08T11:42:58;18.80;61.30
48551;DHT22;34397;51.176;6.738;2023-08-08T11:45:32;18.80;62.00
48551;DHT22;34397;51.176;6.738;2023-08-08T11:48:07;18.70;62.10
48551;DHT22;34397;51.176;6.738;2023-08-08T11:50:41;18.70;62.50
48551;DHT22;34397;51.176;6.738;2023-08-08T11:53:23;18.60;61.90
48551;DHT22;34397;51.176;6.738;2023-08-08T11:55:54;18.50;62.50
48551;DHT22;34397;51.176;6.738;2023-08-08T11:58:28;18.40;62.40
48551;DHT22;34397;51.176;6.738;2023-08-08T12:01:06;18.40;62.70
48551;DHT22;34397;51.176;6.738;2023-08-08T12:03:39;18.30;63.10
48551;DHT22;34397;51.176;6.738;2023-08-08T12:06:13;18.20;63.30
48551;DHT22;34397;51.176;6.738;2023-08-08T12:08:47;18.20;64.10
48551;DHT22;34397;51.176;6.738;2023-08-08T12:11:19;18.00;64.80
48551;DHT22;34397;51.176;6.738;2023-08-08T12:13:57;17.90;64.70
48551;DHT22;34397;51.176;6.738;2023-08-08T12:16:37;17.80;65.00
48551;DHT22;34397;51.176;6.738;2023-08-08T12:19:11;17.70;66.60
48551;DHT22;34397;51.176;6.738;2023-08-08T12:21:56;17.40;67.80
48551;DHT22;34397;51.176;6.738;2023-08-08T12:24:27;17.20;68.80
48551;DHT22;34397;51.176;6.738;2023-08-08T12:27:02;17.00;69.90
48551;DHT22;34397;51.176;6.738;2023-08-08T12:29:43;16.90;69.90
48551;DHT22;34397;51.176;6.738;2023-08-08T12:32:15;16.70;70.00
48551;DHT22;34397;51.176;6.738;2023-08-08T12:34:50;16.70;72.10
48551;DHT22;34397;51.176;6.738;2023-08-08T12:37:24;16.60;70.90
48551;DHT22;34397;51.176;6.738;2023-08-08T12:39:55;16.60;70.80
48551;DHT22;34397;51.176;6.738;2023-08-08T12:42:28;16.60;71.00
48551;DHT22;34397;51.176;6.738;2023-08-08T12:45:00;16.60;71.70
48551;DHT22;34397;51.176;6.738;2023-08-08T12:47:31;16.70;72.50
48551;DHT22;34397;51.176;6.738;2023-08-08T12:50:06;16.80;72.30
48551;DHT22;34397;51.176;6.738;2023-08-08T12:52:40;17.10;71.80
48551;DHT22;34397;51.176;6.738;2023-08-08T12:55:12;17.20;71.20
48551;DHT22;34397;51.176;6.738;2023-08-08T12:57:51;17.50;71.20
48551;DHT22;34397;51.176;6.738;2023-08-08T13:00:25;17.70;69.50
48551;DHT22;34397;51.176;6.738;2023-08-08T13:03:02;17.80;68.40
48551;DHT22;34397;51.176;6.738;2023-08-08T13:05:34;17.90;67.60
48551;DHT22;34397;51.176;6.738;2023-08-08T13:08:08;17.90;66.80
48551;DHT22;34397;51.176;6.738;2023-08-08T13:10:43;18.00;67.00
48551;DHT22;34397;51.176;6.738;2023-08-08T13:13:15;18.00;67.20
48551;DHT22;34397;51.176;6.738;2023-08-08T13:15:47;18.10;68.30
48551;DHT22;34397;51.176;6.738;2023-08-08T13:18:19;18.30;68.30
48551;DHT22;34397;51.176;6.738;2023-08-08T13:20:53;18.50;66.30
48551;DHT22;34397;51.176;6.738;2023-08-08T13:23:26;18.60;64.30
48551;DHT22;34397;51.176;6.738;2023-08-08T13:25:59;18.70;64.30
48551;DHT22;34397;51.176;6.738;2023-08-08T13:28:31;18.80;64.40
48551;DHT22;34397;51.176;6.738;2023-08-08T13:31:03;18.80;64.60
48551;DHT22;34397;51.176;6.738;2023-08-08T13:33:38;18.70;64.70
48551;DHT22;34397;51.176;6.738;2023-08-08T13:36:13;18.70;64.10
48551;DHT22;34397;51.176;6.738;2023-08-08T13:38:46;18.60;64.30
48551;DHT22;34397;51.176;6.738;2023-08-08T13:41:19;18.60;64.30
48551;DHT22;34397;51.176;6.738;2023-08-08T13:43:51;18.50;65.10
48551;DHT22;34397;51.176;6.738;2023-08-08T13:46:23;18.50;65.20
48551;DHT22;34397;51.176;6.738;2023-08-08T13:48:56;18.60;65.70
48551;DHT22;34397;51.176;6.738;2023-08-08T13:51:28;18.70;67.50
48551;DHT22;34397;51.176;6.738;2023-08-08T13:54:01;18.90;65.60
48551;DHT22;34397;51.176;6.738;2023-08-08T13:56:33;19.30;64.00
48551;DHT22;34397;51.176;6.738;2023-08-08T13:59:05;19.80;64.10
48551;DHT22;34397;51.176;6.738;2023-08-08T14:01:37;20.20;61.00
48551;DHT22;34397;51.176;6.738;2023-08-08T14:04:09;20.60;60.80
48551;DHT22;34397;51.176;6.738;2023-08-08T14:06:46;20.70;59.40
48551;DHT22;34397;51.176;6.738;2023-08-08T14:09:20;20.80;56.20
48551;DHT22;34397;51.176;6.738;2023-08-08T14:11:53;20.90;56.60
48551;DHT22;34397;51.176;6.738;2023-08-08T14:14:25;21.00;57.50
48551;DHT22;34397;51.176;6.738;2023-08-08T14:16:59;21.00;58.40
48551;DHT22;34397;51.176;6.738;2023-08-08T14:19:31;21.10;58.70
48551;DHT22;34397;51.176;6.738;2023-08-08T14:22:03;21.40;58.80
48551;DHT22;34397;51.176;6.738;2023-08-08T14:24:38;21.60;57.80
48551;DHT22;34397;51.176;6.738;2023-08-08T14:27:10;21.90;56.70
48551;DHT22;34397;51.176;6.738;2023-08-08T14:29:45;22.10;54.80
48551;DHT22;34397;51.176;6.738;2023-08-08T14:32:22;22.10;54.60
48551;DHT22;34397;51.176;6.738;2023-08-08T14:34:54;21.90;54.30
48551;DHT22;34397;51.176;6.738;2023-08-08T14:37:26;21.90;53.70
48551;DHT22;34397;51.176;6.738;2023-08-08T14:40:01;21.70;54.00
48551;DHT22;34397;51.176;6.738;2023-08-08T14:42:33;21.70;54.60
48551;DHT22;34397;51.176;6.738;2023-08-08T14:45:05;21.60;54.80
48551;DHT22;34397;51.176;6.738;2023-08-08T14:47:38;21.50;55.40
48551;DHT22;34397;51.176;6.738;2023-08-08T14:50:12;21.70;55.20
48551;DHT22;34397;51.176;6.738;2023-08-08T14:52:44;21.70;54.40
48551;DHT22;34397;51.176;6.738;2023-08-08T14:55:17;21.80;54.50
48551;DHT22;34397;51.176;6.738;2023-08-08T14:57:50;21.70;51.80
48551;DHT22;34397;51.176;6.738;2023-08-08T15:00:22;21.50;52.60
48551;DHT22;34397;51.176;6.738;2023-08-08T15:02:54;21.20;50.50
48551;DHT22;34397;51.176;6.738;2023-08-08T15:05:31;21.00;51.70
48551;DHT22;34397;51.176;6.738;2023-08-08T15:08:03;20.90;52.30
48551;DHT22;34397;51.176;6.738;2023-08-08T15:10:42;20.80;52.70
48551;DHT22;34397;51.176;6.738;2023-08-08T15:13:14;20.80;52.70
48551;DHT22;34397;51.176;6.738;2023-08-08T15:15:46;20.80;52.40
48551;DHT22;34397;51.176;6.738;2023-08-08T15:18:20;20.80;52.10
48551;DHT22;34397;51.176;6.738;2023-08-08T15:20:52;20.90;51.40
48551;DHT22;34397;51.176;6.738;2023-08-08T15:23:27;20.90;51.60
48551;DHT22;34397;51.176;6.738;2023-08-08T15:26:03;20.80;51.70
48551;DHT22;34397;51.176;6.738;2023-08-08T15:28:35;20.70;52.10
48551;DHT22;34397;51.176;6.738;2023-08-08T15:31:07;20.80;52.20
48551;DHT22;34397;51.176;6.738;2023-08-08T15:33:39;20.60;52.30
48551;DHT22;34397;51.176;6.738;2023-08-08T15:36:15;20.60;52.50
48551;DHT22;34397;51.176;6.738;2023-08-08T15:38:48;20.60;52.20
48551;DHT22;34397;51.176;6.738;2023-08-08T15:41:24;20.70;52.60
48551;DHT22;34397;51.176;6.738;2023-08-08T15:43:59;20.80;52.60
48551;DHT22;34397;51.176;6.738;2023-08-08T15:46:33;20.80;52.60
48551;DHT22;34397;51.176;6.738;2023-08-08T15:49:07;20.90;51.30
48551;DHT22;34397;51.176;6.738;2023-08-08T15:51:42;20.80;51.40
48551;DHT22;34397;51.176;6.738;2023-08-08T15:54:14;20.70;51.90
48551;DHT22;34397;51.176;6.738;2023-08-08T15:56:49;20.80;51.80
48551;DHT22;34397;51.176;6.738;2023-08-08T15:59:21;20.80;51.80
48551;DHT22;34397;51.176;6.738;2023-08-08T16:01:53;20.80;51.10
48551;DHT22;34397;51.176;6.738;2023-08-08T16:04:25;20.80;51.80